sensor_id;sensor_type;location;lat;lon;timestamp;temperature;humidity
3071;DHT22;1546;47.208;9.038;2023-04-24T00:02:08;11.60;99.90
3071;DHT22;1546;47.208;9.038;2023-04-24T00:04:36;11.50;99.90
3071;DHT22;1546;47.208;9.038;2023-04-24T00:07:05;11.50;99.90
3071;DHT22;1546;47.208;9.038;2023-04-24T00:09:32;11.40;99.90
3071;DHT22;1546;47.208;9.038;2023-04-24T00:11:59;11.30;99.90
3071;DHT22;1546;47.208;9.038;2023-04-24T00:14:28;11.30;99.90
3071;DHT22;1546;47.208;9.038;2023-04-24T00:16:56;11.40;99.90
3071;DHT22;1546;47.208;9.038;2023-04-24T00:19:23;11.30;99.90
3071;DHT22;1546;47.208;9.038;2023-04-24T00:21:50;11.30;99.90
3071;DHT22;1546;47.208;9.038;2023-04-24T00:24:17;11.40;99.90
3071;DHT22;1546;47.208;9.038;2023-04-24T00:26:44;11.50;99.90
3071;DHT22;1546;47.208;9.038;2023-04-24T00:29:11;11.50;99.90
3071;DHT22;1546;47.208;9.038;2023-04-24T00:31:39;11.50;99.90
3071;DHT22;1546;47.208;9.038;2023-04-24T00:34:07;11.60;99.90
3071;DHT22;1546;47.208;9.038;2023-04-24T00:36:36;11.60;99.90
3071;DHT22;1546;47.208;9.038;2023-04-24T00:39:03;11.60;99.90
3071;DHT22;1546;47.208;9.038;2023-04-24T00:41:30;11.70;99.90
3071;DHT22;1546;47.208;9.038;2023-04-24T00:43:57;11.70;99.90
3071;DHT22;1546;47.208;9.038;2023-04-24T00:46:23;11.70;99.90
3071;DHT22;1546;47.208;9.038;2023-04-24T00:48:50;11.70;99.90
3071;DHT22;1546;47.208;9.038;2023-04-24T00:51:19;11.70;99.90
3071;DHT22;1546;47.208;9.038;2023-04-24T00:53:46;11.60;99.90
3071;DHT22;1546;47.208;9.038;2023-04-24T00:56:13;11.60;99.90
3071;DHT22;1546;47.208;9.038;2023-04-24T00:58:40;11.50;99.90
3071;DHT22;1546;47.208;9.038;2023-04-24T01:01:08;11.50;99.90
3071;DHT22;1546;47.208;9.038;2023-04-24T01:03:37;11.50;99.90
3071;DHT22;1546;47.208;9.038;2023-04-24T01:06:05;11.60;99.90
3071;DHT22;1546;47.208;9.038;2023-04-24T01:08:34;11.50;99.90
3071;DHT22;1546;47.208;9.038;2023-04-24T01:11:03;11.60;99.90
3071;DHT22;1546;47.208;9.038;2023-04-24T01:13:31;11.60;99.90
3071;DHT22;1546;47.208;9.038;2023-04-24T01:15:59;11.60;99.90
3071;DHT22;1546;47.208;9.038;2023-04-24T01:18:26;11.30;99.90
3071;DHT22;1546;47.208;9.038;2023-04-24T01:20:55;11.10;99.90
3071;DHT22;1546;47.208;9.038;2023-04-24T01:23:25;10.90;99.90
3071;DHT22;1546;47.208;9.038;2023-04-24T01:25:52;10.90;99.90
3071;DHT22;1546;47.208;9.038;2023-04-24T01:28:19;10.80;99.90
3071;DHT22;1546;47.208;9.038;2023-04-24T01:30:46;10.80;99.90
3071;DHT22;1546;47.208;9.038;2023-04-24T01:33:13;10.70;99.90
3071;DHT22;1546;47.208;9.038;2023-04-24T01:35:40;10.70;99.90
3071;DHT22;1546;47.208;9.038;2023-04-24T01:38:07;10.70;99.90
3071;DHT22;1546;47.208;9.038;2023-04-24T01:40:36;10.70;99.90
3071;DHT22;1546;47.208;9.038;2023-04-24T01:43:03;10.70;99.90
3071;DHT22;1546;47.208;9.038;2023-04-24T01:45:30;10.70;99.90
3071;DHT22;1546;47.208;9.038;2023-04-24T01:47:57;10.80;99.90
3071;DHT22;1546;47.208;9.038;2023-04-24T01:50:24;10.90;99.90
3071;DHT22;1546;47.208;9.038;2023-04-24T01:52:51;11.00;99.90
3071;DHT22;1546;47.208;9.038;2023-04-24T01:55:18;11.10;99.90
3071;DHT22;1546;47.208;9.038;2023-04-24T01:57:47;11.10;99.90
3071;DHT22;1546;47.208;9.038;2023-04-24T02:00:14;11.10;99.90
3071;DHT22;1546;47.208;9.038;2023-04-24T02:02:41;11.20;99.90
3071;DHT22;1546;47.208;9.038;2023-04-24T02:05:08;11.30;99.90
3071;DHT22;1546;47.208;9.038;2023-04-24T02:07:36;11.20;99.90
3071;DHT22;1546;47.208;9.038;2023-04-24T02:10:04;11.00;99.90
3071;DHT22;1546;47.208;9.038;2023-04-24T02:12:32;11.10;99.90
3071;DHT22;1546;47.208;9.038;2023-04-24T02:15:00;10.90;99.90
3071;DHT22;1546;47.208;9.038;2023-04-24T02:17:27;11.00;99.90
3071;DHT22;1546;47.208;9.038;2023-04-24T02:19:54;11.10;99.90
3071;DHT22;1546;47.208;9.038;2023-04-24T02:22:21;11.00;99.90
3071;DHT22;1546;47.208;9.038;2023-04-24T02:24:48;10.90;99.90
3071;DHT22;1546;47.208;9.038;2023-04-24T02:27:15;10.90;99.90
3071;DHT22;1546;47.208;9.038;2023-04-24T02:29:41;10.80;99.90
3071;DHT22;1546;47.208;9.038;2023-04-24T02:32:10;10.70;99.90
3071;DHT22;1546;47.208;9.038;2023-04-24T02:34:37;10.60;99.90
3071;DHT22;1546;47.208;9.038;2023-04-24T02:37:04;10.80;99.90
3071;DHT22;1546;47.208;9.038;2023-04-24T02:39:31;11.00;99.90
3071;DHT22;1546;47.208;9.038;2023-04-24T02:41:58;10.90;99.90
3071;DHT22;1546;47.208;9.038;2023-04-24T02:44:25;10.90;99.90
3071;DHT22;1546;47.208;9.038;2023-04-24T02:46:52;10.90;99.90
3071;DHT22;1546;47.208;9.038;2023-04-24T02:49:20;10.90;99.90
3071;DHT22;1546;47.208;9.038;2023-04-24T02:51:47;11.00;99.90
3071;DHT22;1546;47.208;9.038;2023-04-24T02:54:14;10.90;99.90
3071;DHT22;1546;47.208;9.038;2023-04-24T02:56:40;10.70;99.90
3071;DHT22;1546;47.208;9.038;2023-04-24T02:59:07;10.80;99.90
3071;DHT22;1546;47.208;9.038;2023-04-24T03:01:35;10.70;99.90
3071;DHT22;1546;47.208;9.038;2023-04-24T03:04:02;10.80;99.90
3071;DHT22;1546;47.208;9.038;2023-04-24T03:06:30;10.80;99.90
3071;DHT22;1546;47.208;9.038;2023-04-24T03:08:58;10.70;99.90
3071;DHT22;1546;47.208;9.038;2023-04-24T03:11:25;10.70;99.90
3071;DHT22;1546;47.208;9.038;2023-04-24T03:13:52;10.80;99.90
3071;DHT22;1546;47.208;9.038;2023-04-24T03:16:19;10.70;99.90
3071;DHT22;1546;47.208;9.038;2023-04-24T03:18:45;10.70;99.90
3071;DHT22;1546;47.208;9.038;2023-04-24T03:21:12;10.80;99.90
3071;DHT22;1546;47.208;9.038;2023-04-24T03:23:40;10.70;99.90
3071;DHT22;1546;47.208;9.038;2023-04-24T03:26:07;10.50;99.90
3071;DHT22;1546;47.208;9.038;2023-04-24T03:28:34;10.40;99.90
3071;DHT22;1546;47.208;9.038;2023-04-24T03:31:02;10.40;99.90
3071;DHT22;1546;47.208;9.038;2023-04-24T03:33:29;10.40;99.90
3071;DHT22;1546;47.208;9.038;2023-04-24T03:35:55;10.40;99.90
3071;DHT22;1546;47.208;9.038;2023-04-24T03:38:22;10.50;99.90
3071;DHT22;1546;47.208;9.038;2023-04-24T03:40:50;10.50;99.90
3071;DHT22;1546;47.208;9.038;2023-04-24T03:43:17;10.50;99.90
3071;DHT22;1546;47.208;9.038;2023-04-24T03:45:44;10.60;99.90
3071;DHT22;1546;47.208;9.038;2023-04-24T03:48:11;10.60;99.90
3071;DHT22;1546;47.208;9.038;2023-04-24T03:50:38;10.70;99.90
3071;DHT22;1546;47.208;9.038;2023-04-24T03:53:04;10.60;99.90
3071;DHT22;1546;47.208;9.038;2023-04-24T03:55:31;10.70;99.90
3071;DHT22;1546;47.208;9.038;2023-04-24T03:57:59;10.60;99.90
3071;DHT22;1546;47.208;9.038;2023-04-24T04:00:26;10.60;99.90
3071;DHT22;1546;47.208;9.038;2023-04-24T04:02:53;10.60;99.90
3071;DHT22;1546;47.208;9.038;2023-04-24T04:05:20;10.70;99.90
3071;DHT22;1546;47.208;9.038;2023-04-24T04:07:47;10.90;99.90
3071;DHT22;1546;47.208;9.038;2023-04-24T04:10:14;11.00;99.90
3071;DHT22;1546;47.208;9.038;2023-04-24T04:12:40;11.00;99.90
3071;DHT22;1546;47.208;9.038;2023-04-24T04:15:09;10.90;99.90
3071;DHT22;1546;47.208;9.038;2023-04-24T04:17:36;10.80;99.90
3071;DHT22;1546;47.208;9.038;2023-04-24T04:20:05;10.70;99.90
3071;DHT22;1546;47.208;9.038;2023-04-24T04:22:34;10.70;99.90
3071;DHT22;1546;47.208;9.038;2023-04-24T04:25:01;10.70;99.90
3071;DHT22;1546;47.208;9.038;2023-04-24T04:27:28;10.60;99.90
3071;DHT22;1546;47.208;9.038;2023-04-24T04:29:57;10.60;99.90
3071;DHT22;1546;47.208;9.038;2023-04-24T04:32:26;10.60;99.90
3071;DHT22;1546;47.208;9.038;2023-04-24T04:34:52;10.60;99.90
3071;DHT22;1546;47.208;9.038;2023-04-24T04:37:19;10.70;99.90
3071;DHT22;1546;47.208;9.038;2023-04-24T04:39:46;10.60;99.90
3071;DHT22;1546;47.208;9.038;2023-04-24T04:42:13;10.50;99.90
3071;DHT22;1546;47.208;9.038;2023-04-24T04:44:41;10.60;99.90
3071;DHT22;1546;47.208;9.038;2023-04-24T04:47:08;10.70;99.90
3071;DHT22;1546;47.208;9.038;2023-04-24T04:49:37;10.70;99.90
3071;DHT22;1546;47.208;9.038;2023-04-24T04:52:05;10.80;99.90
3071;DHT22;1546;47.208;9.038;2023-04-24T04:54:31;10.90;99.90
3071;DHT22;1546;47.208;9.038;2023-04-24T04:56:58;10.90;99.90
3071;DHT22;1546;47.208;9.038;2023-04-24T04:59:26;11.00;99.90
3071;DHT22;1546;47.208;9.038;2023-04-24T05:01:52;11.00;99.90
3071;DHT22;1546;47.208;9.038;2023-04-24T05:04:19;10.90;99.90
3071;DHT22;1546;47.208;9.038;2023-04-24T05:06:48;10.80;99.90
3071;DHT22;1546;47.208;9.038;2023-04-24T05:09:16;10.60;99.90
3071;DHT22;1546;47.208;9.038;2023-04-24T05:11:43;10.60;99.90
3071;DHT22;1546;47.208;9.038;2023-04-24T05:14:10;10.60;99.90
3071;DHT22;1546;47.208;9.038;2023-04-24T05:16:38;10.60;99.90
3071;DHT22;1546;47.208;9.038;2023-04-24T05:19:05;10.80;99.90
3071;DHT22;1546;47.208;9.038;2023-04-24T05:21:32;11.00;99.90
3071;DHT22;1546;47.208;9.038;2023-04-24T05:24:00;10.80;99.90
3071;DHT22;1546;47.208;9.038;2023-04-24T05:26:27;10.90;99.90
3071;DHT22;1546;47.208;9.038;2023-04-24T05:28:54;11.00;99.90
3071;DHT22;1546;47.208;9.038;2023-04-24T05:31:20;11.00;99.90
3071;DHT22;1546;47.208;9.038;2023-04-24T05:33:47;10.90;99.90
3071;DHT22;1546;47.208;9.038;2023-04-24T05:36:14;10.80;99.90
3071;DHT22;1546;47.208;9.038;2023-04-24T05:38:41;10.90;99.90
3071;DHT22;1546;47.208;9.038;2023-04-24T05:41:09;10.90;99.90
3071;DHT22;1546;47.208;9.038;2023-04-24T05:43:36;10.90;99.90
3071;DHT22;1546;47.208;9.038;2023-04-24T05:46:03;11.10;99.90
3071;DHT22;1546;47.208;9.038;2023-04-24T05:48:30;11.10;99.90
3071;DHT22;1546;47.208;9.038;2023-04-24T05:50:56;11.00;99.90
3071;DHT22;1546;47.208;9.038;2023-04-24T05:53:23;11.00;99.90
3071;DHT22;1546;47.208;9.038;2023-04-24T05:55:50;11.00;99.90
3071;DHT22;1546;47.208;9.038;2023-04-24T05:58:18;10.90;99.90
3071;DHT22;1546;47.208;9.038;2023-04-24T06:00:45;10.90;99.90
3071;DHT22;1546;47.208;9.038;2023-04-24T06:03:12;10.70;99.90
3071;DHT22;1546;47.208;9.038;2023-04-24T06:05:39;10.60;99.90
3071;DHT22;1546;47.208;9.038;2023-04-24T06:08:06;10.40;99.90
3071;DHT22;1546;47.208;9.038;2023-04-24T06:10:33;10.40;99.90
3071;DHT22;1546;47.208;9.038;2023-04-24T06:13:00;10.30;99.90
3071;DHT22;1546;47.208;9.038;2023-04-24T06:15:29;10.00;99.90
3071;DHT22;1546;47.208;9.038;2023-04-24T06:17:56;9.80;99.90
3071;DHT22;1546;47.208;9.038;2023-04-24T06:20:24;9.80;99.90
3071;DHT22;1546;47.208;9.038;2023-04-24T06:22:51;9.80;99.90
3071;DHT22;1546;47.208;9.038;2023-04-24T06:25:18;9.80;99.90
3071;DHT22;1546;47.208;9.038;2023-04-24T06:27:45;10.00;99.90
3071;DHT22;1546;47.208;9.038;2023-04-24T06:30:12;10.10;99.90
3071;DHT22;1546;47.208;9.038;2023-04-24T06:32:40;10.10;99.90
3071;DHT22;1546;47.208;9.038;2023-04-24T06:35:08;10.20;99.90
3071;DHT22;1546;47.208;9.038;2023-04-24T06:37:35;10.30;99.90
3071;DHT22;1546;47.208;9.038;2023-04-24T06:40:02;10.30;99.90
3071;DHT22;1546;47.208;9.038;2023-04-24T06:42:30;10.20;99.90
3071;DHT22;1546;47.208;9.038;2023-04-24T06:44:56;10.10;99.90
3071;DHT22;1546;47.208;9.038;2023-04-24T06:47:23;10.10;99.90
3071;DHT22;1546;47.208;9.038;2023-04-24T06:49:51;10.00;99.90
3071;DHT22;1546;47.208;9.038;2023-04-24T06:52:19;10.00;99.90
3071;DHT22;1546;47.208;9.038;2023-04-24T06:54:46;10.00;99.90
3071;DHT22;1546;47.208;9.038;2023-04-24T06:57:13;10.00;99.90
3071;DHT22;1546;47.208;9.038;2023-04-24T06:59:41;9.90;99.90
3071;DHT22;1546;47.208;9.038;2023-04-24T07:02:08;10.00;99.90
3071;DHT22;1546;47.208;9.038;2023-04-24T07:04:35;10.00;99.90
3071;DHT22;1546;47.208;9.038;2023-04-24T07:07:03;10.00;99.90
3071;DHT22;1546;47.208;9.038;2023-04-24T07:09:32;10.20;99.90
3071;DHT22;1546;47.208;9.038;2023-04-24T07:12:00;10.40;99.90
3071;DHT22;1546;47.208;9.038;2023-04-24T07:14:27;10.60;99.90
3071;DHT22;1546;47.208;9.038;2023-04-24T07:16:54;10.80;99.90
3071;DHT22;1546;47.208;9.038;2023-04-24T07:19:22;10.90;99.90
3071;DHT22;1546;47.208;9.038;2023-04-24T07:21:49;11.00;99.90
3071;DHT22;1546;47.208;9.038;2023-04-24T07:24:17;11.10;99.90
3071;DHT22;1546;47.208;9.038;2023-04-24T07:26:44;11.10;99.90
3071;DHT22;1546;47.208;9.038;2023-04-24T07:29:12;11.30;99.90
3071;DHT22;1546;47.208;9.038;2023-04-24T07:31:39;11.60;99.90
3071;DHT22;1546;47.208;9.038;2023-04-24T07:34:06;11.70;99.90
3071;DHT22;1546;47.208;9.038;2023-04-24T07:36:33;11.80;99.90
3071;DHT22;1546;47.208;9.038;2023-04-24T07:39:00;11.70;99.90
3071;DHT22;1546;47.208;9.038;2023-04-24T07:41:28;11.50;99.90
3071;DHT22;1546;47.208;9.038;2023-04-24T07:43:55;11.30;99.90
3071;DHT22;1546;47.208;9.038;2023-04-24T07:46:22;11.30;99.90
3071;DHT22;1546;47.208;9.038;2023-04-24T07:48:50;11.30;99.90
3071;DHT22;1546;47.208;9.038;2023-04-24T07:51:17;11.20;99.90
3071;DHT22;1546;47.208;9.038;2023-04-24T07:53:43;11.10;99.90
3071;DHT22;1546;47.208;9.038;2023-04-24T07:56:10;11.00;99.90
3071;DHT22;1546;47.208;9.038;2023-04-24T07:58:39;10.50;99.90
3071;DHT22;1546;47.208;9.038;2023-04-24T08:01:06;9.90;99.90
3071;DHT22;1546;47.208;9.038;2023-04-24T08:03:33;9.40;99.90
3071;DHT22;1546;47.208;9.038;2023-04-24T08:06:00;8.90;99.90
3071;DHT22;1546;47.208;9.038;2023-04-24T08:08:27;8.70;99.90
3071;DHT22;1546;47.208;9.038;2023-04-24T08:10:54;8.70;99.90
3071;DHT22;1546;47.208;9.038;2023-04-24T08:13:21;8.70;99.90
3071;DHT22;1546;47.208;9.038;2023-04-24T08:15:49;8.90;99.90
3071;DHT22;1546;47.208;9.038;2023-04-24T08:18:16;9.10;99.90
3071;DHT22;1546;47.208;9.038;2023-04-24T08:20:43;9.30;99.90
3071;DHT22;1546;47.208;9.038;2023-04-24T08:23:10;9.60;99.90
3071;DHT22;1546;47.208;9.038;2023-04-24T08:25:37;9.60;99.90
3071;DHT22;1546;47.208;9.038;2023-04-24T08:28:06;9.60;99.90
3071;DHT22;1546;47.208;9.038;2023-04-24T08:30:33;9.70;99.90
3071;DHT22;1546;47.208;9.038;2023-04-24T08:33:01;9.80;99.90
3071;DHT22;1546;47.208;9.038;2023-04-24T08:35:28;10.00;99.90
3071;DHT22;1546;47.208;9.038;2023-04-24T08:37:54;10.10;99.90
3071;DHT22;1546;47.208;9.038;2023-04-24T08:40:26;10.40;99.90
3071;DHT22;1546;47.208;9.038;2023-04-24T08:42:54;10.60;99.90
3071;DHT22;1546;47.208;9.038;2023-04-24T08:45:23;10.90;99.90
3071;DHT22;1546;47.208;9.038;2023-04-24T08:47:52;11.20;99.90
3071;DHT22;1546;47.208;9.038;2023-04-24T08:50:21;11.40;99.90
3071;DHT22;1546;47.208;9.038;2023-04-24T08:52:50;11.80;99.90
3071;DHT22;1546;47.208;9.038;2023-04-24T08:55:18;11.80;99.90
3071;DHT22;1546;47.208;9.038;2023-04-24T08:57:50;11.70;99.90
3071;DHT22;1546;47.208;9.038;2023-04-24T09:00:18;11.50;99.90
3071;DHT22;1546;47.208;9.038;2023-04-24T09:02:47;11.60;99.90
3071;DHT22;1546;47.208;9.038;2023-04-24T09:05:16;11.80;99.90
3071;DHT22;1546;47.208;9.038;2023-04-24T09:07:47;12.20;99.90
3071;DHT22;1546;47.208;9.038;2023-04-24T09:10:16;12.40;99.90
3071;DHT22;1546;47.208;9.038;2023-04-24T09:12:44;12.70;99.90
3071;DHT22;1546;47.208;9.038;2023-04-24T09:15:11;13.10;99.90
3071;DHT22;1546;47.208;9.038;2023-04-24T09:17:38;13.10;99.90
3071;DHT22;1546;47.208;9.038;2023-04-24T09:20:06;13.20;99.90
3071;DHT22;1546;47.208;9.038;2023-04-24T09:22:33;12.90;99.90
3071;DHT22;1546;47.208;9.038;2023-04-24T09:25:04;12.50;99.90
3071;DHT22;1546;47.208;9.038;2023-04-24T09:27:32;11.90;99.90
3071;DHT22;1546;47.208;9.038;2023-04-24T09:30:00;11.60;99.90
3071;DHT22;1546;47.208;9.038;2023-04-24T09:32:27;11.70;99.90
3071;DHT22;1546;47.208;9.038;2023-04-24T09:35:10;11.90;99.90
3071;DHT22;1546;47.208;9.038;2023-04-24T09:37:39;12.20;99.90
3071;DHT22;1546;47.208;9.038;2023-04-24T09:40:16;12.50;99.90
3071;DHT22;1546;47.208;9.038;2023-04-24T09:42:44;12.90;99.90
3071;DHT22;1546;47.208;9.038;2023-04-24T09:45:12;13.40;99.90
3071;DHT22;1546;47.208;9.038;2023-04-24T09:47:39;13.30;98.20
3071;DHT22;1546;47.208;9.038;2023-04-24T09:50:12;13.00;99.00
3071;DHT22;1546;47.208;9.038;2023-04-24T09:52:43;12.70;98.90
3071;DHT22;1546;47.208;9.038;2023-04-24T09:55:19;12.30;99.90
3071;DHT22;1546;47.208;9.038;2023-04-24T09:57:50;11.80;99.90
3071;DHT22;1546;47.208;9.038;2023-04-24T10:00:24;10.90;99.90
3071;DHT22;1546;47.208;9.038;2023-04-24T10:02:56;10.60;99.90
3071;DHT22;1546;47.208;9.038;2023-04-24T10:05:26;10.60;99.90
3071;DHT22;1546;47.208;9.038;2023-04-24T10:07:56;10.90;99.90
3071;DHT22;1546;47.208;9.038;2023-04-24T10:10:25;11.30;99.90
3071;DHT22;1546;47.208;9.038;2023-04-24T10:12:52;11.40;99.90
3071;DHT22;1546;47.208;9.038;2023-04-24T10:15:20;11.40;99.90
3071;DHT22;1546;47.208;9.038;2023-04-24T10:17:48;11.20;99.90
3071;DHT22;1546;47.208;9.038;2023-04-24T10:20:19;10.90;99.90
3071;DHT22;1546;47.208;9.038;2023-04-24T10:22:48;10.90;99.90
3071;DHT22;1546;47.208;9.038;2023-04-24T10:25:18;11.00;99.90
3071;DHT22;1546;47.208;9.038;2023-04-24T10:27:47;11.30;99.90
3071;DHT22;1546;47.208;9.038;2023-04-24T10:30:14;11.70;99.90
3071;DHT22;1546;47.208;9.038;2023-04-24T10:32:41;11.90;99.90
3071;DHT22;1546;47.208;9.038;2023-04-24T10:35:09;12.10;99.90
3071;DHT22;1546;47.208;9.038;2023-04-24T10:37:37;12.00;99.90
3071;DHT22;1546;47.208;9.038;2023-04-24T10:40:06;12.00;99.90
3071;DHT22;1546;47.208;9.038;2023-04-24T10:42:34;12.10;99.90
3071;DHT22;1546;47.208;9.038;2023-04-24T10:45:06;12.00;99.90
3071;DHT22;1546;47.208;9.038;2023-04-24T10:47:40;12.20;99.90
3071;DHT22;1546;47.208;9.038;2023-04-24T10:50:09;12.40;99.90
3071;DHT22;1546;47.208;9.038;2023-04-24T10:52:45;12.60;99.90
3071;DHT22;1546;47.208;9.038;2023-04-24T10:55:13;12.80;99.90
3071;DHT22;1546;47.208;9.038;2023-04-24T10:58:01;12.90;99.90
3071;DHT22;1546;47.208;9.038;2023-04-24T11:00:29;12.70;99.90
3071;DHT22;1546;47.208;9.038;2023-04-24T11:02:56;12.70;99.90
3071;DHT22;1546;47.208;9.038;2023-04-24T11:05:52;12.70;99.90
3071;DHT22;1546;47.208;9.038;2023-04-24T11:08:27;12.70;99.90
3071;DHT22;1546;47.208;9.038;2023-04-24T11:11:08;12.80;99.90
3071;DHT22;1546;47.208;9.038;2023-04-24T11:14:01;12.80;99.90
3071;DHT22;1546;47.208;9.038;2023-04-24T11:16:29;12.80;99.90
3071;DHT22;1546;47.208;9.038;2023-04-24T11:19:01;12.90;99.90
3071;DHT22;1546;47.208;9.038;2023-04-24T11:21:39;13.10;99.90
3071;DHT22;1546;47.208;9.038;2023-04-24T11:24:23;13.40;99.90
3071;DHT22;1546;47.208;9.038;2023-04-24T11:26:51;13.40;99.90
3071;DHT22;1546;47.208;9.038;2023-04-24T11:29:19;13.40;99.90
3071;DHT22;1546;47.208;9.038;2023-04-24T11:31:47;13.70;99.90
3071;DHT22;1546;47.208;9.038;2023-04-24T11:34:17;14.00;99.90
3071;DHT22;1546;47.208;9.038;2023-04-24T11:36:46;14.30;99.90
3071;DHT22;1546;47.208;9.038;2023-04-24T11:39:13;14.50;99.90
3071;DHT22;1546;47.208;9.038;2023-04-24T11:41:40;14.90;99.90
3071;DHT22;1546;47.208;9.038;2023-04-24T11:44:09;15.00;99.90
3071;DHT22;1546;47.208;9.038;2023-04-24T11:46:36;15.00;99.90
3071;DHT22;1546;47.208;9.038;2023-04-24T11:49:05;14.90;99.50
3071;DHT22;1546;47.208;9.038;2023-04-24T11:51:32;14.80;98.60
3071;DHT22;1546;47.208;9.038;2023-04-24T11:54:02;14.80;97.00
3071;DHT22;1546;47.208;9.038;2023-04-24T11:56:29;14.60;97.30
3071;DHT22;1546;47.208;9.038;2023-04-24T11:58:56;14.40;98.20
3071;DHT22;1546;47.208;9.038;2023-04-24T12:01:23;14.30;99.70
3071;DHT22;1546;47.208;9.038;2023-04-24T12:03:59;14.40;98.60
3071;DHT22;1546;47.208;9.038;2023-04-24T12:06:26;14.60;99.10
3071;DHT22;1546;47.208;9.038;2023-04-24T12:08:53;15.00;99.90
3071;DHT22;1546;47.208;9.038;2023-04-24T12:11:24;15.50;99.10
3071;DHT22;1546;47.208;9.038;2023-04-24T12:13:51;15.80;97.30
3071;DHT22;1546;47.208;9.038;2023-04-24T12:16:18;16.20;98.70
3071;DHT22;1546;47.208;9.038;2023-04-24T12:18:45;16.60;96.90
3071;DHT22;1546;47.208;9.038;2023-04-24T12:21:18;16.30;94.30
3071;DHT22;1546;47.208;9.038;2023-04-24T12:23:45;16.50;94.00
3071;DHT22;1546;47.208;9.038;2023-04-24T12:26:15;16.50;93.20
3071;DHT22;1546;47.208;9.038;2023-04-24T12:28:46;16.10;93.90
3071;DHT22;1546;47.208;9.038;2023-04-24T12:31:13;16.40;94.30
3071;DHT22;1546;47.208;9.038;2023-04-24T12:33:40;16.50;93.20
3071;DHT22;1546;47.208;9.038;2023-04-24T12:36:10;16.10;94.80
3071;DHT22;1546;47.208;9.038;2023-04-24T12:38:37;15.70;94.70
3071;DHT22;1546;47.208;9.038;2023-04-24T12:41:08;15.80;96.00
3071;DHT22;1546;47.208;9.038;2023-04-24T12:43:36;16.10;93.70
3071;DHT22;1546;47.208;9.038;2023-04-24T12:46:04;16.40;92.40
3071;DHT22;1546;47.208;9.038;2023-04-24T12:48:31;16.40;91.20
3071;DHT22;1546;47.208;9.038;2023-04-24T12:50:58;16.50;92.30
3071;DHT22;1546;47.208;9.038;2023-04-24T12:53:27;16.90;90.10
3071;DHT22;1546;47.208;9.038;2023-04-24T12:55:56;16.80;89.90
3071;DHT22;1546;47.208;9.038;2023-04-24T12:58:23;16.40;90.70
3071;DHT22;1546;47.208;9.038;2023-04-24T13:00:50;16.10;90.60
3071;DHT22;1546;47.208;9.038;2023-04-24T13:03:19;15.10;91.00
3071;DHT22;1546;47.208;9.038;2023-04-24T13:05:48;14.00;93.20
3071;DHT22;1546;47.208;9.038;2023-04-24T13:08:14;13.20;93.80
3071;DHT22;1546;47.208;9.038;2023-04-24T13:10:41;12.30;96.20
3071;DHT22;1546;47.208;9.038;2023-04-24T13:13:08;11.90;98.60
3071;DHT22;1546;47.208;9.038;2023-04-24T13:15:35;11.90;98.20
3071;DHT22;1546;47.208;9.038;2023-04-24T13:18:02;12.10;99.90
3071;DHT22;1546;47.208;9.038;2023-04-24T13:20:30;12.50;99.90
3071;DHT22;1546;47.208;9.038;2023-04-24T13:22:57;12.90;99.60
3071;DHT22;1546;47.208;9.038;2023-04-24T13:25:24;13.20;99.20
3071;DHT22;1546;47.208;9.038;2023-04-24T13:27:52;13.40;98.40
3071;DHT22;1546;47.208;9.038;2023-04-24T13:30:19;13.60;97.60
3071;DHT22;1546;47.208;9.038;2023-04-24T13:32:46;14.10;97.10
3071;DHT22;1546;47.208;9.038;2023-04-24T13:35:12;14.40;96.30
3071;DHT22;1546;47.208;9.038;2023-04-24T13:37:40;15.00;96.90
3071;DHT22;1546;47.208;9.038;2023-04-24T13:40:08;15.30;96.80
3071;DHT22;1546;47.208;9.038;2023-04-24T13:42:35;15.50;97.70
3071;DHT22;1546;47.208;9.038;2023-04-24T13:45:03;15.80;97.50
3071;DHT22;1546;47.208;9.038;2023-04-24T13:47:30;16.30;96.80
3071;DHT22;1546;47.208;9.038;2023-04-24T13:49:57;16.60;97.10
3071;DHT22;1546;47.208;9.038;2023-04-24T13:52:24;16.90;96.80
3071;DHT22;1546;47.208;9.038;2023-04-24T13:54:52;17.50;94.50
3071;DHT22;1546;47.208;9.038;2023-04-24T13:57:19;17.90;92.50
3071;DHT22;1546;47.208;9.038;2023-04-24T13:59:46;18.20;91.90
3071;DHT22;1546;47.208;9.038;2023-04-24T14:02:12;18.40;91.80
3071;DHT22;1546;47.208;9.038;2023-04-24T14:04:40;18.20;89.10
3071;DHT22;1546;47.208;9.038;2023-04-24T14:07:07;18.10;86.10
3071;DHT22;1546;47.208;9.038;2023-04-24T14:09:34;17.80;81.50
3071;DHT22;1546;47.208;9.038;2023-04-24T14:12:02;17.40;83.80
3071;DHT22;1546;47.208;9.038;2023-04-24T14:14:29;17.00;83.50
3071;DHT22;1546;47.208;9.038;2023-04-24T14:16:57;17.00;85.80
3071;DHT22;1546;47.208;9.038;2023-04-24T14:19:24;17.00;84.00
3071;DHT22;1546;47.208;9.038;2023-04-24T14:21:50;16.90;84.10
3071;DHT22;1546;47.208;9.038;2023-04-24T14:24:18;16.50;83.80
3071;DHT22;1546;47.208;9.038;2023-04-24T14:26:45;16.30;86.60
3071;DHT22;1546;47.208;9.038;2023-04-24T14:29:13;16.20;87.70
3071;DHT22;1546;47.208;9.038;2023-04-24T14:31:40;16.30;89.20
3071;DHT22;1546;47.208;9.038;2023-04-24T14:34:07;16.30;90.20
3071;DHT22;1546;47.208;9.038;2023-04-24T14:36:34;16.10;91.70
3071;DHT22;1546;47.208;9.038;2023-04-24T14:39:01;15.90;91.90
3071;DHT22;1546;47.208;9.038;2023-04-24T14:41:31;15.80;92.20
3071;DHT22;1546;47.208;9.038;2023-04-24T14:44:01;15.50;91.90
3071;DHT22;1546;47.208;9.038;2023-04-24T14:46:29;15.40;93.10
3071;DHT22;1546;47.208;9.038;2023-04-24T14:48:56;15.60;93.10
3071;DHT22;1546;47.208;9.038;2023-04-24T14:51:23;15.60;93.40
3071;DHT22;1546;47.208;9.038;2023-04-24T14:53:51;15.60;93.00
3071;DHT22;1546;47.208;9.038;2023-04-24T14:56:18;15.80;93.20
3071;DHT22;1546;47.208;9.038;2023-04-24T14:58:44;15.90;92.40
3071;DHT22;1546;47.208;9.038;2023-04-24T15:01:11;16.30;92.90
3071;DHT22;1546;47.208;9.038;2023-04-24T15:03:40;16.60;90.10
3071;DHT22;1546;47.208;9.038;2023-04-24T15:06:06;17.00;88.60
3071;DHT22;1546;47.208;9.038;2023-04-24T15:08:33;17.20;87.20
3071;DHT22;1546;47.208;9.038;2023-04-24T15:11:01;17.20;85.90
3071;DHT22;1546;47.208;9.038;2023-04-24T15:16:08;17.00;89.50
3071;DHT22;1546;47.208;9.038;2023-04-24T15:18:34;17.00;86.10
3071;DHT22;1546;47.208;9.038;2023-04-24T15:21:01;17.00;85.50
3071;DHT22;1546;47.208;9.038;2023-04-24T15:23:28;17.00;85.50
3071;DHT22;1546;47.208;9.038;2023-04-24T15:25:55;17.00;87.80
3071;DHT22;1546;47.208;9.038;2023-04-24T15:28:23;17.00;87.60
3071;DHT22;1546;47.208;9.038;2023-04-24T15:30:50;16.90;84.50
3071;DHT22;1546;47.208;9.038;2023-04-24T15:33:19;16.90;85.50
3071;DHT22;1546;47.208;9.038;2023-04-24T15:35:46;16.70;82.90
3071;DHT22;1546;47.208;9.038;2023-04-24T15:38:14;16.60;84.30
3071;DHT22;1546;47.208;9.038;2023-04-24T15:40:40;16.40;85.60
3071;DHT22;1546;47.208;9.038;2023-04-24T15:43:07;16.00;84.40
3071;DHT22;1546;47.208;9.038;2023-04-24T15:45:34;15.80;86.70
3071;DHT22;1546;47.208;9.038;2023-04-24T15:48:01;15.40;87.50
3071;DHT22;1546;47.208;9.038;2023-04-24T15:50:29;14.70;90.00
3071;DHT22;1546;47.208;9.038;2023-04-24T15:52:56;14.30;90.00
3071;DHT22;1546;47.208;9.038;2023-04-24T15:55:23;14.30;90.40
3071;DHT22;1546;47.208;9.038;2023-04-24T15:57:49;14.30;91.60
3071;DHT22;1546;47.208;9.038;2023-04-24T16:00:17;14.40;90.20
3071;DHT22;1546;47.208;9.038;2023-04-24T16:02:44;14.40;91.30
3071;DHT22;1546;47.208;9.038;2023-04-24T16:05:11;14.40;90.90
3071;DHT22;1546;47.208;9.038;2023-04-24T16:07:39;14.40;90.90
3071;DHT22;1546;47.208;9.038;2023-04-24T16:10:07;14.40;90.70